ADDS METAR Data INFO
IDs: Format: Raw Decoded Include TAF

Data at: 0258 UTC 21 Oct 2017

KHKS 210253Z AUTO 12006KT 10SM CLR 21/17 A3011 RMK AO2 SLP187 T02110172 53006
KHKS 210153Z AUTO 10007KT 10SM CLR 22/17 A3010 RMK AO2 SLP184 T02220172
KHKS 210053Z 08004KT 10SM SCT048 22/17 A3010 RMK AO2 SLP184 T02220172
KHKS 202353Z 11003KT 10SM SCT045 23/17 A3009 RMK AO2 SLP182 T02280167 10272 20228 58000
KHKS 202253Z 13005KT 10SM CLR 24/17 A3009 RMK AO2 SLP182 T02440167
KHKS 202153Z 14008KT 10SM CLR 26/16 A3009 RMK AO2 SLP182 T02560161
KHKS 202053Z 12007KT 10SM CLR 26/16 A3009 RMK AO2 SLP182 T02610161 56025
KHKS 201953Z 15011KT 10SM CLR 27/16 A3011 RMK AO2 SLP187 T02720156
KHKS 201853Z 13007G17KT 090V190 10SM FEW046 27/16 A3012 RMK AO2 SLP193 T02670156
KHKS 201753Z 14009KT 10SM CLR 26/15 A3016 RMK AO2 SLP206 T02560150 10261 20122 58022
KHKS 201653Z 13008KT 10SM CLR 25/14 A3020 RMK AO2 SLP218 T02500144
KHKS 201553Z 12006KT 10SM CLR 23/16 A3021 RMK AO2 SLP223 T02280156
KHKS 201453Z 12005KT 10SM CLR 19/16 A3023 RMK AO2 SLP230 T01940156 53006
KHKS 201353Z VRB03KT 10SM CLR 17/16 A3022 RMK AO2 SLP227 T01720156 $
KHKS 201253Z AUTO 00000KT 4SM BR CLR 14/14 A3021 RMK AO2 SLP224 T01390139 $
KHKS 201153Z AUTO 00000KT 6SM BR CLR 13/13 A3021 RMK AO2 SLP224 T01330133 10161 20122 53008
KHKS 201053Z AUTO 00000KT 8SM CLR 13/13 A3019 RMK AO2 SLP217 T01330133
KHKS 200953Z AUTO 00000KT 9SM CLR 14/14 A3019 RMK AO2 SLP215 T01390139
KHKS 200853Z AUTO 00000KT 9SM CLR 14/14 A3019 RMK AO2 SLP215 T01390139 58005
KHKS 200753Z AUTO 00000KT 10SM CLR 14/14 A3020 RMK AO2 SLP218 T01440139
KHKS 200653Z AUTO 11004KT 10SM CLR 16/14 A3020 RMK AO2 SLP219 T01610144
KHKS 200553Z AUTO 00000KT 10SM CLR 15/14 A3020 RMK AO2 SLP220 T01500139 10200 20150 402610089 58001
KHKS 200453Z AUTO 00000KT 10SM CLR 16/14 A3021 RMK AO2 SLP222 T01610144
KHKS 200353Z AUTO 10003KT 10SM CLR 16/14 A3021 RMK AO2 SLP222 T01560144
KHKS 200253Z AUTO 00000KT 10SM CLR 16/15 A3020 RMK AO2 SLP221 T01610150 51011
KHKS 200153Z AUTO 00000KT 10SM CLR 16/15 A3019 RMK AO2 SLPNO T01610150
KHKS 200053Z 00000KT 10SM CLR 19/15 A3019 RMK AO2 SLP216 T01890150
KHKS 192353Z 00000KT 10SM CLR 19/16 A3017 RMK AO2 SLP211 T01940156 10261 20194 55000
KHKS 192253Z 08004KT 10SM CLR 23/14 A3017 RMK AO2 SLP208 T02330144
KHKS 192153Z 11003KT 10SM CLR 25/14 A3016 RMK AO2 SLP207 T02500139
KHKS 192053Z VRB03KT 10SM CLR 26/14 A3017 RMK AO2 SLP210 T02560144 56020
KHKS 191953Z 00000KT 10SM CLR 25/14 A3018 RMK AO2 SLP213 T02500139
KHKS 191853Z 00000KT 10SM CLR 24/13 A3020 RMK AO2 SLP220 T02440128
KHKS 191753Z 08005KT 10SM CLR 24/13 A3023 RMK AO2 SLP230 T02440133 58012 $
KHKS 191653Z VRB03KT 10SM CLR 23/13 A3026 RMK AO2 SLP241 T02330133 $
KHKS 191553Z VRB04KT 10SM CLR 23/12 A3026 RMK AO2 SLP242 T02280117 $